Barneveld, New York
Current Conditions -  °F | °C
As of 9:53 PM on Saturday 25 Oct 2014 (Local Time) from KRME Reporting Station
Haze Haze  
Wind Chill: 47°   Ceiling: Unl
Heat Index: 49°   Visibility: 5mi
Dew Point: 47°   Wind: 5mph
Humidity: 93%   Direction: 310°NW
Pressure: 29.58"   Gusts: NA
Location:  43.27°N, 75.19°W
Report Text: KRME 260153Z AUTO 31004KT 5SM BR CLR 09/08 A2958 RMK AO2 SLP016 T00940083
Loading
Personal Weather Stations






























Interactive Weather Map
Tropical Storm Tracking
New forecast layout! Learn more

10-Day Weather Forecast

Advertisements
Track Severe Weather on mobile